createdAt,value
2023-03-10T00:01:25.053Z,3.13
2023-03-10T00:03:55.330Z,1.33
2023-03-10T00:06:27.168Z,1.90
2023-03-10T00:08:56.102Z,1.70
2023-03-10T00:11:26.048Z,1.50
2023-03-10T00:13:54.639Z,1.50
2023-03-10T00:16:25.540Z,1.80
2023-03-10T00:18:54.830Z,2.10
2023-03-10T00:21:27.195Z,2.00
2023-03-10T00:23:56.246Z,1.50
2023-03-10T00:26:29.005Z,3.00
2023-03-10T00:28:57.621Z,1.10
2023-03-10T00:31:28.802Z,1.30
2023-03-10T00:33:57.926Z,1.40
2023-03-10T00:36:29.276Z,1.10
2023-03-10T00:39:00.845Z,1.10
2023-03-10T00:41:33.684Z,1.07
2023-03-10T00:44:02.396Z,1.10
2023-03-10T00:46:33.273Z,0.77
2023-03-10T00:49:01.974Z,0.90
2023-03-10T00:51:30.623Z,0.63
2023-03-10T00:56:31.803Z,0.93
2023-03-10T00:59:01.984Z,0.63
2023-03-10T01:01:33.734Z,0.70
2023-03-10T01:04:06.323Z,0.40
2023-03-10T01:06:35.169Z,0.77
2023-03-10T01:09:05.203Z,1.00
2023-03-10T01:11:36.143Z,0.60
2023-03-10T01:14:08.114Z,1.00
2023-03-10T01:16:36.625Z,0.97
2023-03-10T01:19:05.305Z,1.07
2023-03-10T01:21:36.877Z,0.97
2023-03-10T01:24:07.502Z,0.87
2023-03-10T01:26:37.424Z,0.73
2023-03-10T01:29:05.941Z,0.77
2023-03-10T01:31:34.369Z,0.97
2023-03-10T01:34:04.130Z,0.67
2023-03-10T01:36:32.659Z,0.60
2023-03-10T01:39:01.552Z,0.60
2023-03-10T01:41:30.066Z,0.63
2023-03-10T01:44:00.027Z,0.60
2023-03-10T01:46:51.012Z,0.70
2023-03-10T01:49:42.964Z,0.70
2023-03-10T01:52:18.249Z,0.60
2023-03-10T01:54:52.053Z,0.70
2023-03-10T01:57:26.551Z,0.60
2023-03-10T01:59:58.231Z,0.47
2023-03-10T02:02:29.975Z,0.60
2023-03-10T02:04:59.671Z,0.57
2023-03-10T02:07:34.040Z,0.47
2023-03-10T02:10:05.193Z,0.70
2023-03-10T02:12:34.098Z,0.50
2023-03-10T02:15:04.859Z,0.40
2023-03-10T02:17:33.404Z,0.63
2023-03-10T02:20:23.664Z,0.57
2023-03-10T02:22:53.084Z,0.77
2023-03-10T02:25:39.433Z,0.40
2023-03-10T02:28:09.452Z,0.60
2023-03-10T02:30:41.438Z,0.50
2023-03-10T02:33:15.152Z,0.80
2023-03-10T02:35:45.396Z,0.50
2023-03-10T02:38:17.853Z,0.80
2023-03-10T02:40:50.989Z,0.60
2023-03-10T02:43:28.345Z,0.67
2023-03-10T02:46:06.755Z,0.40
2023-03-10T02:48:40.771Z,0.70
2023-03-10T02:51:20.117Z,0.53
2023-03-10T02:53:48.854Z,0.50
2023-03-10T02:56:17.695Z,0.40
2023-03-10T02:58:49.448Z,0.50
2023-03-10T03:01:18.622Z,0.50
2023-03-10T03:03:47.395Z,0.53
2023-03-10T03:06:16.068Z,0.57
2023-03-10T03:08:46.225Z,0.73
2023-03-10T03:11:18.402Z,0.70
2023-03-10T03:13:48.427Z,0.70
2023-03-10T03:16:17.038Z,0.87
2023-03-10T03:18:47.510Z,0.60
2023-03-10T03:21:19.562Z,0.80
2023-03-10T03:23:49.212Z,0.70
2023-03-10T03:26:23.233Z,0.47
2023-03-10T03:28:56.510Z,1.50
2023-03-10T03:31:29.083Z,0.80
2023-03-10T03:34:07.235Z,0.83
2023-03-10T03:36:37.457Z,0.67
2023-03-10T03:39:07.476Z,0.90
2023-03-10T03:41:37.461Z,0.90
2023-03-10T03:44:07.663Z,0.80
2023-03-10T03:46:37.580Z,0.60
2023-03-10T03:49:06.416Z,0.63
2023-03-10T03:51:37.608Z,0.57
2023-03-10T03:54:07.263Z,1.13
2023-03-10T03:56:37.686Z,0.80
2023-03-10T03:59:07.793Z,0.80
2023-03-10T04:01:36.299Z,1.00
2023-03-10T04:04:07.037Z,1.23
2023-03-10T04:06:36.325Z,0.67
2023-03-10T04:09:06.618Z,1.30
2023-03-10T04:11:35.547Z,0.50
2023-03-10T04:14:04.879Z,1.10
2023-03-10T04:16:34.790Z,0.70
2023-03-10T04:19:07.641Z,0.60
2023-03-10T04:21:38.703Z,0.87
2023-03-10T04:24:08.551Z,0.60
2023-03-10T04:26:37.281Z,0.87
2023-03-10T04:29:06.279Z,0.80
2023-03-10T04:31:38.698Z,0.70
2023-03-10T04:34:09.716Z,0.50
2023-03-10T04:36:39.800Z,1.10
2023-03-10T04:39:09.816Z,0.90
2023-03-10T04:41:38.577Z,0.60
2023-03-10T04:44:09.521Z,0.87
2023-03-10T04:46:45.594Z,0.90
2023-03-10T04:49:15.330Z,0.63
2023-03-10T04:51:46.676Z,0.80
2023-03-10T04:54:15.833Z,0.90
2023-03-10T04:56:44.433Z,0.67
2023-03-10T04:59:13.051Z,0.97
2023-03-10T05:01:41.773Z,0.73
2023-03-10T05:04:11.678Z,1.13
2023-03-10T05:06:40.376Z,0.93
2023-03-10T05:09:18.757Z,1.13
2023-03-10T05:11:47.802Z,0.90
2023-03-10T05:14:16.924Z,1.27
2023-03-10T05:16:47.852Z,1.00
2023-03-10T05:19:17.820Z,0.80
2023-03-10T05:21:46.387Z,1.00
2023-03-10T05:24:14.880Z,0.97
2023-03-10T05:26:43.450Z,0.90
2023-03-10T05:29:11.967Z,0.90
2023-03-10T05:31:51.316Z,0.93
2023-03-10T05:34:27.899Z,0.97
2023-03-10T05:36:59.443Z,1.10
2023-03-10T05:39:28.969Z,1.10
2023-03-10T05:41:59.923Z,1.37
2023-03-10T05:44:30.910Z,1.10
2023-03-10T05:47:00.233Z,1.00
2023-03-10T05:49:30.870Z,1.23
2023-03-10T05:52:00.037Z,1.30
2023-03-10T05:54:28.922Z,1.50
2023-03-10T05:56:57.296Z,1.10
2023-03-10T05:59:28.322Z,0.93
2023-03-10T06:01:57.542Z,1.27
2023-03-10T06:04:28.432Z,1.33
2023-03-10T06:07:00.560Z,1.30
2023-03-10T06:09:30.347Z,1.10
2023-03-10T06:11:59.141Z,1.10
2023-03-10T06:14:27.982Z,1.27
2023-03-10T06:16:56.933Z,1.30
2023-03-10T06:19:26.218Z,1.00
2023-03-10T06:21:54.569Z,1.10
2023-03-10T06:24:24.330Z,1.27
2023-03-10T06:26:52.692Z,1.50
2023-03-10T06:29:21.142Z,1.30
2023-03-10T06:31:49.648Z,1.10
2023-03-10T06:34:18.702Z,1.20
2023-03-10T06:36:47.090Z,1.30
2023-03-10T06:39:15.447Z,1.30
2023-03-10T06:41:45.164Z,1.57
2023-03-10T06:44:19.054Z,1.40
2023-03-10T06:46:47.699Z,1.20
2023-03-10T06:49:16.314Z,1.20
2023-03-10T06:51:44.701Z,1.43
2023-03-10T06:54:13.076Z,1.90
2023-03-10T06:56:41.450Z,2.23
2023-03-10T06:59:11.319Z,1.30
2023-03-10T07:01:39.789Z,1.57
2023-03-10T07:04:08.321Z,1.70
2023-03-10T07:06:36.687Z,1.90
2023-03-10T07:09:06.174Z,1.53
2023-03-10T07:11:34.823Z,1.77
2023-03-10T07:14:03.662Z,1.70
2023-03-10T07:16:33.532Z,1.20
2023-03-10T07:19:01.942Z,1.63
2023-03-10T07:21:30.350Z,1.53
2023-03-10T07:24:00.135Z,1.63
2023-03-10T07:26:28.657Z,1.73
2023-03-10T07:28:57.062Z,2.27
2023-03-10T07:31:25.700Z,1.60
2023-03-10T07:33:55.505Z,2.20
2023-03-10T07:36:24.342Z,2.00
2023-03-10T07:38:52.759Z,1.70
2023-03-10T07:41:22.744Z,2.30
2023-03-10T07:43:54.469Z,2.43
2023-03-10T07:46:23.565Z,1.90
2023-03-10T07:48:52.974Z,1.90
2023-03-10T07:51:22.871Z,2.10
2023-03-10T07:53:51.395Z,2.23
2023-03-10T07:56:20.063Z,2.20
2023-03-10T07:58:48.462Z,1.60
2023-03-10T08:01:19.431Z,2.57
2023-03-10T08:03:48.686Z,2.17
2023-03-10T08:06:23.328Z,2.00
2023-03-10T08:08:52.635Z,1.50
2023-03-10T08:11:22.354Z,1.80
2023-03-10T08:13:50.828Z,3.87
2023-03-10T08:16:22.727Z,2.03
2023-03-10T08:18:51.567Z,1.90
2023-03-10T08:21:20.439Z,1.93
2023-03-10T08:23:50.203Z,2.33
2023-03-10T08:26:20.502Z,2.37
2023-03-10T08:28:50.350Z,2.73
2023-03-10T08:31:21.632Z,2.00
2023-03-10T08:33:50.732Z,1.90
2023-03-10T08:36:22.782Z,2.30
2023-03-10T08:38:54.029Z,2.00
2023-03-10T08:41:26.700Z,2.10
2023-03-10T08:43:57.802Z,2.73
2023-03-10T08:46:28.515Z,2.30
2023-03-10T08:48:57.339Z,1.60
2023-03-10T08:51:27.196Z,2.30
2023-03-10T08:53:57.328Z,2.83
2023-03-10T08:56:26.836Z,1.47
2023-03-10T08:58:59.001Z,1.87
2023-03-10T09:01:29.284Z,2.20
2023-03-10T09:03:58.200Z,1.67
2023-03-10T09:06:26.811Z,0.80
2023-03-10T09:08:56.654Z,1.60
2023-03-10T09:11:29.287Z,1.33
2023-03-10T09:13:57.829Z,1.10
2023-03-10T09:16:28.659Z,1.37
2023-03-10T09:18:57.116Z,1.20
2023-03-10T09:21:25.646Z,1.50
2023-03-10T09:23:54.169Z,1.20
2023-03-10T09:26:24.204Z,0.90
2023-03-10T09:28:54.711Z,1.10
2023-03-10T09:31:31.088Z,1.00
2023-03-10T09:33:59.536Z,0.90
2023-03-10T09:36:29.728Z,1.10
2023-03-10T09:38:59.052Z,1.10
2023-03-10T09:42:25.549Z,1.17
2023-03-10T09:45:18.421Z,1.40
2023-03-10T09:48:04.810Z,1.50
2023-03-10T09:50:37.541Z,2.10
2023-03-10T09:53:30.949Z,1.33
2023-03-10T09:55:59.579Z,1.13
2023-03-10T09:58:34.658Z,1.27
2023-03-10T10:01:05.008Z,2.43
2023-03-10T10:03:51.584Z,1.43
2023-03-10T10:06:28.479Z,1.30
2023-03-10T10:09:05.342Z,1.70
2023-03-10T10:11:36.672Z,1.53
2023-03-10T10:14:30.608Z,1.57
2023-03-10T10:17:12.865Z,1.00
2023-03-10T10:19:43.057Z,1.27
2023-03-10T10:22:21.817Z,0.80
2023-03-10T10:25:19.102Z,1.30
2023-03-10T10:27:49.813Z,1.20
2023-03-10T10:30:34.435Z,1.20
2023-03-10T10:33:05.840Z,1.40
2023-03-10T10:35:36.828Z,0.60
2023-03-10T10:38:08.747Z,0.87
2023-03-10T10:40:48.710Z,1.30
2023-03-10T10:43:19.505Z,1.27
2023-03-10T10:45:55.285Z,1.63
2023-03-10T10:48:40.587Z,0.73
2023-03-10T10:51:24.561Z,1.00
2023-03-10T10:53:53.233Z,0.93
2023-03-10T10:56:24.044Z,1.30
2023-03-10T10:59:09.002Z,1.00
2023-03-10T11:01:55.128Z,0.97
2023-03-10T11:04:25.992Z,0.73
2023-03-10T11:07:10.368Z,1.20
2023-03-10T11:09:39.161Z,1.37
2023-03-10T11:12:20.261Z,1.10
2023-03-10T11:15:09.559Z,0.90
2023-03-10T11:17:45.312Z,1.40
2023-03-10T11:20:26.566Z,0.97
2023-03-10T11:23:05.634Z,0.80
2023-03-10T11:25:39.968Z,0.80
2023-03-10T11:28:26.883Z,0.90
2023-03-10T11:31:05.168Z,1.53
2023-03-10T11:33:40.980Z,0.40
2023-03-10T11:36:38.440Z,1.10
2023-03-10T11:39:20.209Z,0.50
2023-03-10T11:41:54.295Z,0.60
2023-03-10T11:44:30.071Z,0.60
2023-03-10T11:47:07.613Z,0.90
2023-03-10T11:49:40.394Z,0.40
2023-03-10T11:52:15.546Z,0.73
2023-03-10T11:54:48.810Z,0.50
2023-03-10T11:57:21.268Z,1.10
2023-03-10T11:59:56.791Z,0.67
2023-03-10T12:02:30.834Z,0.70
2023-03-10T12:05:06.831Z,0.80
2023-03-10T12:07:39.219Z,1.13
2023-03-10T12:10:17.380Z,0.90
2023-03-10T12:12:48.669Z,1.00
2023-03-10T12:15:22.294Z,0.70
2023-03-10T12:17:52.107Z,0.80
2023-03-10T12:20:30.986Z,1.17
2023-03-10T12:23:00.659Z,0.73
2023-03-10T12:25:48.618Z,0.80
2023-03-10T12:28:27.388Z,0.83
2023-03-10T12:30:59.354Z,1.00
2023-03-10T12:33:51.572Z,0.70
2023-03-10T12:36:40.768Z,0.73
2023-03-10T12:39:40.116Z,1.00
2023-03-10T12:42:31.246Z,0.80
2023-03-10T12:45:24.311Z,0.70
2023-03-10T12:48:02.619Z,0.90
2023-03-10T12:50:45.962Z,1.17
2023-03-10T12:53:30.453Z,1.40
2023-03-10T12:56:34.083Z,1.07
2023-03-10T12:59:11.880Z,0.87
2023-03-10T13:01:55.507Z,1.33
2023-03-10T13:04:26.376Z,1.20
2023-03-10T13:07:03.683Z,0.97
2023-03-10T13:09:39.108Z,0.90
2023-03-10T13:12:13.771Z,0.80
2023-03-10T13:14:44.293Z,0.67
2023-03-10T13:17:24.220Z,0.70
2023-03-10T13:20:02.102Z,0.90
2023-03-10T13:22:30.636Z,1.10
2023-03-10T13:25:04.299Z,2.00
2023-03-10T13:27:35.279Z,0.60
2023-03-10T13:30:12.242Z,1.03
2023-03-10T13:32:41.004Z,0.40
2023-03-10T13:35:24.852Z,0.70
2023-03-10T13:38:12.243Z,0.80
2023-03-10T13:40:45.497Z,0.63
2023-03-10T13:43:36.995Z,0.80
2023-03-10T13:46:09.984Z,0.73
2023-03-10T13:48:40.932Z,0.70
2023-03-10T13:51:19.298Z,0.70
2023-03-10T13:53:49.877Z,0.53
2023-03-10T13:56:24.342Z,0.70
2023-03-10T13:58:55.727Z,1.00
2023-03-10T14:01:27.047Z,0.50
2023-03-10T14:03:59.492Z,0.53
2023-03-10T14:06:29.828Z,0.50
2023-03-10T14:08:58.218Z,0.60
2023-03-10T14:11:36.764Z,0.63
2023-03-10T14:14:08.035Z,0.83
2023-03-10T14:16:52.435Z,0.97
2023-03-10T14:19:54.123Z,0.90
2023-03-10T14:22:38.086Z,0.80
2023-03-10T14:25:14.757Z,1.00
2023-03-10T14:27:47.126Z,0.80
2023-03-10T14:30:24.720Z,0.80
2023-03-10T14:32:53.918Z,0.47
2023-03-10T14:35:24.159Z,0.80
2023-03-10T14:37:53.723Z,0.50
2023-03-10T14:40:24.972Z,0.80
2023-03-10T14:42:59.108Z,0.70
2023-03-10T14:45:31.436Z,0.90
2023-03-10T14:48:02.904Z,0.87
2023-03-10T14:50:31.911Z,0.80
2023-03-10T14:53:00.336Z,1.50
2023-03-10T14:55:29.746Z,1.30
2023-03-10T14:58:02.438Z,1.70
2023-03-10T15:00:31.439Z,0.73
2023-03-10T15:03:00.238Z,4.20
2023-03-10T15:05:45.403Z,0.90
2023-03-10T15:08:16.249Z,1.50
2023-03-10T15:10:48.231Z,1.43
2023-03-10T15:13:19.545Z,0.90
2023-03-10T15:15:49.269Z,1.00
2023-03-10T15:18:21.508Z,1.10
2023-03-10T15:20:50.679Z,0.67
2023-03-10T15:23:20.132Z,0.50
2023-03-10T15:25:49.044Z,0.80
2023-03-10T15:28:18.812Z,0.50
2023-03-10T15:30:47.701Z,0.70
2023-03-10T15:33:16.848Z,0.67
2023-03-10T15:35:45.842Z,0.50
2023-03-10T15:38:16.292Z,1.03
2023-03-10T15:40:44.780Z,0.90
2023-03-10T15:43:13.100Z,0.50
2023-03-10T15:45:46.662Z,0.50
2023-03-10T15:48:15.059Z,0.70
2023-03-10T15:50:44.596Z,1.00
2023-03-10T15:53:12.973Z,0.50
2023-03-10T15:55:42.496Z,0.83
2023-03-10T15:58:11.979Z,0.83
2023-03-10T16:00:43.856Z,0.80
2023-03-10T16:03:12.532Z,0.73
2023-03-10T16:05:48.926Z,0.70
2023-03-10T16:08:19.044Z,0.73
2023-03-10T16:10:53.302Z,0.50
2023-03-10T16:13:23.837Z,0.70
2023-03-10T16:15:53.788Z,0.70
2023-03-10T16:18:22.346Z,0.50
2023-03-10T16:20:58.545Z,0.50
2023-03-10T16:23:27.520Z,0.53
2023-03-10T16:26:21.249Z,0.97
2023-03-10T16:28:52.667Z,1.27
2023-03-10T16:31:24.784Z,0.70
2023-03-10T16:33:53.725Z,0.60
2023-03-10T16:36:24.533Z,0.90
2023-03-10T16:38:54.569Z,0.80
2023-03-10T16:41:24.771Z,0.90
2023-03-10T16:43:54.647Z,1.10
2023-03-10T16:46:26.276Z,0.90
2023-03-10T16:48:56.753Z,0.77
2023-03-10T16:51:29.038Z,0.90
2023-03-10T16:53:59.892Z,1.37
2023-03-10T16:56:29.235Z,1.57
2023-03-10T16:58:58.587Z,0.73
2023-03-10T17:01:28.420Z,1.00
2023-03-10T17:03:57.689Z,2.37
2023-03-10T17:06:29.520Z,1.13
2023-03-10T17:08:59.005Z,0.80
2023-03-10T17:11:30.036Z,1.50
2023-03-10T17:14:01.119Z,0.97
2023-03-10T17:16:33.641Z,1.23
2023-03-10T17:19:05.689Z,1.00
2023-03-10T17:21:39.343Z,1.00
2023-03-10T17:24:09.530Z,0.63
2023-03-10T17:26:38.210Z,0.67
2023-03-10T17:29:06.815Z,0.70
2023-03-10T17:31:37.619Z,1.10
2023-03-10T17:34:10.438Z,0.87
2023-03-10T17:36:38.876Z,0.80
2023-03-10T17:39:08.054Z,1.13
2023-03-10T17:41:37.954Z,0.90
2023-03-10T17:44:06.291Z,0.70
2023-03-10T17:46:36.396Z,0.83
2023-03-10T17:49:05.039Z,0.47
2023-03-10T17:51:33.496Z,0.60
2023-03-10T17:54:03.134Z,0.80
2023-03-10T17:56:31.868Z,0.67
2023-03-10T17:59:01.153Z,1.97
2023-03-10T18:01:32.026Z,1.10
2023-03-10T18:04:03.459Z,1.30
2023-03-10T18:06:35.348Z,1.23
2023-03-10T18:09:07.017Z,1.03
2023-03-10T18:11:36.504Z,0.70
2023-03-10T18:14:05.721Z,0.80
2023-03-10T18:16:36.964Z,1.10
2023-03-10T18:19:10.556Z,1.10
2023-03-10T18:21:39.583Z,2.03
2023-03-10T18:24:08.804Z,1.10
2023-03-10T18:26:38.099Z,1.07
2023-03-10T18:29:06.515Z,0.80
2023-03-10T18:31:35.739Z,0.70
2023-03-10T18:34:06.057Z,0.70
2023-03-10T18:36:35.092Z,0.90
2023-03-10T18:39:04.949Z,0.80
2023-03-10T18:41:33.466Z,0.63
2023-03-10T18:44:02.124Z,0.47
2023-03-10T18:46:31.137Z,0.50
2023-03-10T18:48:59.581Z,0.37
2023-03-10T18:51:30.274Z,0.93
2023-03-10T18:53:58.936Z,0.60
2023-03-10T18:56:29.204Z,0.80
2023-03-10T18:58:57.813Z,0.53
2023-03-10T19:01:27.036Z,0.63
2023-03-10T19:03:55.706Z,0.60
2023-03-10T19:06:24.232Z,1.10
2023-03-10T19:08:53.984Z,0.70
2023-03-10T19:11:24.475Z,1.10
2023-03-10T19:13:53.006Z,0.70
2023-03-10T19:16:21.566Z,0.83
2023-03-10T19:18:50.044Z,0.70
2023-03-10T19:21:18.515Z,0.77
2023-03-10T19:23:46.940Z,0.70
2023-03-10T19:26:16.760Z,0.93
2023-03-10T19:28:45.343Z,0.67
2023-03-10T19:31:16.814Z,1.10
2023-03-10T19:33:45.314Z,1.37
2023-03-10T19:36:15.324Z,1.57
2023-03-10T19:38:45.592Z,1.10
2023-03-10T19:41:18.037Z,1.10
2023-03-10T19:43:48.946Z,1.37
2023-03-10T19:46:18.414Z,1.63
2023-03-10T19:48:46.937Z,1.80
2023-03-10T19:51:25.766Z,1.70
2023-03-10T19:53:55.924Z,2.40
2023-03-10T19:56:26.562Z,2.50
2023-03-10T19:58:54.990Z,1.60
2023-03-10T20:01:26.277Z,2.70
2023-03-10T20:03:58.531Z,3.07
2023-03-10T20:06:28.160Z,3.00
2023-03-10T20:08:57.337Z,3.17
2023-03-10T20:11:29.057Z,3.40
2023-03-10T20:13:57.537Z,4.00
2023-03-10T20:16:27.643Z,3.33
2023-03-10T20:18:56.267Z,4.43
2023-03-10T20:21:24.705Z,3.30
2023-03-10T20:23:55.503Z,3.20
2023-03-10T20:26:26.211Z,2.50
2023-03-10T20:28:54.781Z,2.30
2023-03-10T20:31:24.666Z,3.00
2023-03-10T20:33:54.046Z,2.70
2023-03-10T20:36:22.593Z,2.90
2023-03-10T20:38:50.942Z,2.80
2023-03-10T20:41:21.507Z,3.10
2023-03-10T20:43:53.420Z,2.50
2023-03-10T20:46:22.894Z,2.60
2023-03-10T20:48:51.784Z,2.70
2023-03-10T20:51:22.674Z,2.80
2023-03-10T20:53:51.896Z,3.27
2023-03-10T20:56:20.357Z,2.77
2023-03-10T20:58:50.192Z,2.37
2023-03-10T21:01:22.146Z,2.10
2023-03-10T21:03:54.515Z,2.87
2023-03-10T21:06:23.975Z,2.80
2023-03-10T21:08:52.539Z,3.00
2023-03-10T21:11:21.724Z,2.50
2023-03-10T21:13:51.972Z,1.93
2023-03-10T21:16:21.008Z,3.37
2023-03-10T21:18:49.570Z,2.60
2023-03-10T21:21:18.187Z,3.17
2023-03-10T21:23:47.091Z,1.80
2023-03-10T21:26:18.308Z,2.50
2023-03-10T21:28:47.258Z,1.90
2023-03-10T21:31:17.632Z,2.00
2023-03-10T21:33:46.290Z,2.17
2023-03-10T21:36:17.646Z,2.77
2023-03-10T21:38:48.777Z,2.30
2023-03-10T21:41:23.534Z,1.70
2023-03-10T21:43:53.844Z,2.00
2023-03-10T21:46:24.969Z,1.80
2023-03-10T21:48:53.757Z,2.20
2023-03-10T21:51:25.672Z,1.93
2023-03-10T21:53:54.801Z,1.50
2023-03-10T21:56:26.023Z,2.23
2023-03-10T21:58:54.494Z,1.00
2023-03-10T22:01:25.247Z,1.60
2023-03-10T22:03:53.945Z,2.30
2023-03-10T22:06:22.469Z,2.00
2023-03-10T22:08:50.905Z,1.80
2023-03-10T22:11:19.454Z,1.70
2023-03-10T22:13:47.860Z,1.60
2023-03-10T22:16:18.449Z,1.50
2023-03-10T22:18:49.378Z,1.50
2023-03-10T22:21:18.685Z,2.00
2023-03-10T22:23:47.018Z,1.67
2023-03-10T22:26:15.719Z,1.10
2023-03-10T22:28:44.277Z,1.30
2023-03-10T22:31:13.466Z,1.07
2023-03-10T22:33:42.152Z,1.90
2023-03-10T22:36:14.359Z,1.30
2023-03-10T22:38:42.836Z,2.27
2023-03-10T22:41:12.587Z,1.60
2023-03-10T22:43:41.654Z,1.30
2023-03-10T22:46:12.532Z,1.03
2023-03-10T22:48:41.898Z,1.40
2023-03-10T22:51:16.426Z,1.80
2023-03-10T22:53:46.955Z,1.10
2023-03-10T22:56:16.294Z,0.83
2023-03-10T22:58:45.677Z,1.47
2023-03-10T23:01:14.640Z,1.50
2023-03-10T23:03:43.229Z,0.97
2023-03-10T23:06:14.698Z,1.10
2023-03-10T23:08:46.529Z,1.50
2023-03-10T23:11:17.195Z,1.43
2023-03-10T23:13:45.871Z,1.27
2023-03-10T23:16:14.495Z,1.20
2023-03-10T23:18:42.950Z,1.63
2023-03-10T23:21:12.717Z,2.10
2023-03-10T23:23:43.711Z,1.83
2023-03-10T23:26:12.943Z,1.57
2023-03-10T23:28:41.558Z,1.87
2023-03-10T23:31:15.626Z,1.83
2023-03-10T23:33:45.217Z,1.53
2023-03-10T23:36:15.054Z,1.20
2023-03-10T23:38:43.761Z,1.40
2023-03-10T23:41:12.482Z,1.60
2023-03-10T23:43:41.445Z,1.63
2023-03-10T23:46:10.514Z,1.33
2023-03-10T23:48:39.047Z,1.10
2023-03-10T23:51:15.625Z,1.50
2023-03-10T23:53:45.164Z,1.30
2023-03-10T23:56:13.610Z,1.40
2023-03-10T23:58:42.143Z,1.57
